sensor_id;sensor_type;location;lat;lon;timestamp;temperature;humidity
68128;SHT30;54931;52.098;21.006;2022-08-19T00:02:09;22.83;70.52
68128;SHT30;54931;52.098;21.006;2022-08-19T00:04:37;22.76;70.64
68128;SHT30;54931;52.098;21.006;2022-08-19T00:07:05;22.70;70.74
68128;SHT30;54931;52.098;21.006;2022-08-19T00:09:33;22.71;70.92
68128;SHT30;54931;52.098;21.006;2022-08-19T00:12:01;22.71;70.91
68128;SHT30;54931;52.098;21.006;2022-08-19T00:14:30;22.69;70.99
68128;SHT30;54931;52.098;21.006;2022-08-19T00:16:57;22.69;71.11
68128;SHT30;54931;52.098;21.006;2022-08-19T00:19:26;22.69;71.22
68128;SHT30;54931;52.098;21.006;2022-08-19T00:21:54;22.64;71.21
68128;SHT30;54931;52.098;21.006;2022-08-19T00:24:22;22.55;71.32
68128;SHT30;54931;52.098;21.006;2022-08-19T00:26:51;22.53;71.51
68128;SHT30;54931;52.098;21.006;2022-08-19T00:29:20;22.56;71.65
68128;SHT30;54931;52.098;21.006;2022-08-19T00:31:50;22.60;71.76
68128;SHT30;54931;52.098;21.006;2022-08-19T00:34:22;22.61;71.75
68128;SHT30;54931;52.098;21.006;2022-08-19T00:36:51;22.60;71.73
68128;SHT30;54931;52.098;21.006;2022-08-19T00:39:19;22.57;71.80
68128;SHT30;54931;52.098;21.006;2022-08-19T00:41:47;22.59;71.81
68128;SHT30;54931;52.098;21.006;2022-08-19T00:46:50;22.61;71.77
68128;SHT30;54931;52.098;21.006;2022-08-19T00:49:22;22.45;71.83
68128;SHT30;54931;52.098;21.006;2022-08-19T00:52:11;22.33;72.05
68128;SHT30;54931;52.098;21.006;2022-08-19T00:54:48;22.27;72.37
68128;SHT30;54931;52.098;21.006;2022-08-19T00:57:20;22.22;72.45
68128;SHT30;54931;52.098;21.006;2022-08-19T00:59:59;22.18;72.59
68128;SHT30;54931;52.098;21.006;2022-08-19T01:02:31;22.15;72.74
68128;SHT30;54931;52.098;21.006;2022-08-19T01:05:04;22.14;73.09
68128;SHT30;54931;52.098;21.006;2022-08-19T01:07:38;22.12;73.19
68128;SHT30;54931;52.098;21.006;2022-08-19T01:12:34;22.10;73.29
68128;SHT30;54931;52.098;21.006;2022-08-19T01:15:04;22.09;73.55
68128;SHT30;54931;52.098;21.006;2022-08-19T01:17:35;22.08;73.40
68128;SHT30;54931;52.098;21.006;2022-08-19T01:20:09;22.08;73.45
68128;SHT30;54931;52.098;21.006;2022-08-19T01:25:47;22.08;73.32
68128;SHT30;54931;52.098;21.006;2022-08-19T01:28:20;22.05;73.31
68128;SHT30;54931;52.098;21.006;2022-08-19T01:30:54;22.01;73.37
68128;SHT30;54931;52.098;21.006;2022-08-19T01:33:21;22.00;73.49
68128;SHT30;54931;52.098;21.006;2022-08-19T01:35:49;21.99;73.48
68128;SHT30;54931;52.098;21.006;2022-08-19T01:38:25;22.01;73.59
68128;SHT30;54931;52.098;21.006;2022-08-19T01:40:58;22.05;73.58
68128;SHT30;54931;52.098;21.006;2022-08-19T01:43:26;22.06;73.55
68128;SHT30;54931;52.098;21.006;2022-08-19T01:45:53;22.07;73.51
68128;SHT30;54931;52.098;21.006;2022-08-19T01:48:21;22.03;73.45
68128;SHT30;54931;52.098;21.006;2022-08-19T01:50:49;22.00;73.57
68128;SHT30;54931;52.098;21.006;2022-08-19T01:53:17;21.96;73.62
68128;SHT30;54931;52.098;21.006;2022-08-19T01:55:44;21.91;73.84
68128;SHT30;54931;52.098;21.006;2022-08-19T01:58:14;21.89;73.98
68128;SHT30;54931;52.098;21.006;2022-08-19T02:00:47;21.87;74.02
68128;SHT30;54931;52.098;21.006;2022-08-19T02:03:16;21.85;74.12
68128;SHT30;54931;52.098;21.006;2022-08-19T02:05:44;21.81;74.15
68128;SHT30;54931;52.098;21.006;2022-08-19T02:08:12;21.78;74.32
68128;SHT30;54931;52.098;21.006;2022-08-19T02:10:42;21.78;74.40
68128;SHT30;54931;52.098;21.006;2022-08-19T02:13:11;21.78;74.61
68128;SHT30;54931;52.098;21.006;2022-08-19T02:15:40;21.77;74.86
68128;SHT30;54931;52.098;21.006;2022-08-19T02:18:08;21.75;75.02
68128;SHT30;54931;52.098;21.006;2022-08-19T02:20:37;21.73;75.55
68128;SHT30;54931;52.098;21.006;2022-08-19T02:23:07;21.73;75.54
68128;SHT30;54931;52.098;21.006;2022-08-19T02:25:35;21.74;75.46
68128;SHT30;54931;52.098;21.006;2022-08-19T02:28:03;21.74;75.35
68128;SHT30;54931;52.098;21.006;2022-08-19T02:30:32;21.72;75.42
68128;SHT30;54931;52.098;21.006;2022-08-19T02:33:00;21.71;75.49
68128;SHT30;54931;52.098;21.006;2022-08-19T02:35:28;21.70;75.43
68128;SHT30;54931;52.098;21.006;2022-08-19T02:37:55;21.68;75.31
68128;SHT30;54931;52.098;21.006;2022-08-19T02:40:47;21.66;75.20
68128;SHT30;54931;52.098;21.006;2022-08-19T02:43:20;21.66;75.19
68128;SHT30;54931;52.098;21.006;2022-08-19T02:45:49;21.65;75.23
68128;SHT30;54931;52.098;21.006;2022-08-19T02:48:18;21.64;75.16
68128;SHT30;54931;52.098;21.006;2022-08-19T02:50:48;21.66;75.08
68128;SHT30;54931;52.098;21.006;2022-08-19T02:53:22;21.69;74.99
68128;SHT30;54931;52.098;21.006;2022-08-19T02:55:53;21.69;74.91
68128;SHT30;54931;52.098;21.006;2022-08-19T02:58:21;21.65;74.89
68128;SHT30;54931;52.098;21.006;2022-08-19T03:00:51;21.63;75.06
68128;SHT30;54931;52.098;21.006;2022-08-19T03:03:22;21.60;74.99
68128;SHT30;54931;52.098;21.006;2022-08-19T03:05:50;21.59;75.04
68128;SHT30;54931;52.098;21.006;2022-08-19T03:08:18;21.58;75.00
68128;SHT30;54931;52.098;21.006;2022-08-19T03:10:46;21.57;75.04
68128;SHT30;54931;52.098;21.006;2022-08-19T03:13:15;21.53;75.26
68128;SHT30;54931;52.098;21.006;2022-08-19T03:15:45;21.53;75.26
68128;SHT30;54931;52.098;21.006;2022-08-19T03:18:14;21.52;75.20
68128;SHT30;54931;52.098;21.006;2022-08-19T03:20:44;21.52;75.24
68128;SHT30;54931;52.098;21.006;2022-08-19T03:23:16;21.50;75.29
68128;SHT30;54931;52.098;21.006;2022-08-19T03:25:45;21.50;75.29
68128;SHT30;54931;52.098;21.006;2022-08-19T03:28:14;21.49;75.32
68128;SHT30;54931;52.098;21.006;2022-08-19T03:30:53;21.49;75.29
68128;SHT30;54931;52.098;21.006;2022-08-19T03:33:27;21.47;75.70
68128;SHT30;54931;52.098;21.006;2022-08-19T03:36:05;21.48;75.46
68128;SHT30;54931;52.098;21.006;2022-08-19T03:38:50;21.49;75.46
68128;SHT30;54931;52.098;21.006;2022-08-19T03:41:23;21.51;75.41
68128;SHT30;54931;52.098;21.006;2022-08-19T03:43:54;21.50;75.38
68128;SHT30;54931;52.098;21.006;2022-08-19T03:46:26;21.51;75.51
68128;SHT30;54931;52.098;21.006;2022-08-19T03:48:57;21.52;75.40
68128;SHT30;54931;52.098;21.006;2022-08-19T03:51:37;21.55;75.35
68128;SHT30;54931;52.098;21.006;2022-08-19T03:54:06;21.56;75.30
68128;SHT30;54931;52.098;21.006;2022-08-19T03:56:37;21.61;75.22
68128;SHT30;54931;52.098;21.006;2022-08-19T03:59:08;21.66;75.16
68128;SHT30;54931;52.098;21.006;2022-08-19T04:01:40;21.74;75.10
68128;SHT30;54931;52.098;21.006;2022-08-19T04:04:07;21.81;74.98
68128;SHT30;54931;52.098;21.006;2022-08-19T04:06:37;21.91;74.86
68128;SHT30;54931;52.098;21.006;2022-08-19T04:09:07;22.05;74.66
68128;SHT30;54931;52.098;21.006;2022-08-19T04:11:39;22.15;74.43
68128;SHT30;54931;52.098;21.006;2022-08-19T04:14:17;22.29;74.23
68128;SHT30;54931;52.098;21.006;2022-08-19T04:16:48;22.41;73.80
68128;SHT30;54931;52.098;21.006;2022-08-19T04:19:16;22.44;73.55
68128;SHT30;54931;52.098;21.006;2022-08-19T04:21:48;22.43;73.37
68128;SHT30;54931;52.098;21.006;2022-08-19T04:24:19;22.45;73.32
68128;SHT30;54931;52.098;21.006;2022-08-19T04:26:48;22.47;73.14
68128;SHT30;54931;52.098;21.006;2022-08-19T04:29:19;22.49;73.13
68128;SHT30;54931;52.098;21.006;2022-08-19T04:31:51;22.53;72.94
68128;SHT30;54931;52.098;21.006;2022-08-19T04:34:23;22.61;72.86
68128;SHT30;54931;52.098;21.006;2022-08-19T04:36:54;22.72;72.70
68128;SHT30;54931;52.098;21.006;2022-08-19T04:39:26;22.82;72.29
68128;SHT30;54931;52.098;21.006;2022-08-19T04:42:16;22.93;72.07
68128;SHT30;54931;52.098;21.006;2022-08-19T04:45:04;23.01;71.63
68128;SHT30;54931;52.098;21.006;2022-08-19T04:47:40;23.09;71.62
68128;SHT30;54931;52.098;21.006;2022-08-19T04:50:10;23.14;71.28
68128;SHT30;54931;52.098;21.006;2022-08-19T04:52:38;23.20;71.03
68128;SHT30;54931;52.098;21.006;2022-08-19T04:55:10;23.21;70.79
68128;SHT30;54931;52.098;21.006;2022-08-19T04:57:40;23.21;70.74
68128;SHT30;54931;52.098;21.006;2022-08-19T05:00:08;23.22;70.83
68128;SHT30;54931;52.098;21.006;2022-08-19T05:02:37;23.26;70.75
68128;SHT30;54931;52.098;21.006;2022-08-19T05:05:05;23.31;70.63
68128;SHT30;54931;52.098;21.006;2022-08-19T05:07:34;23.36;70.53
68128;SHT30;54931;52.098;21.006;2022-08-19T05:10:03;23.45;70.38
68128;SHT30;54931;52.098;21.006;2022-08-19T05:12:32;23.67;70.14
68128;SHT30;54931;52.098;21.006;2022-08-19T05:15:03;23.86;69.37
68128;SHT30;54931;52.098;21.006;2022-08-19T05:17:35;23.86;69.37
68128;SHT30;54931;52.098;21.006;2022-08-19T05:20:04;23.91;69.46
68128;SHT30;54931;52.098;21.006;2022-08-19T05:22:52;23.91;69.18
68128;SHT30;54931;52.098;21.006;2022-08-19T05:25:20;23.93;69.16
68128;SHT30;54931;52.098;21.006;2022-08-19T05:27:50;23.97;69.15
68128;SHT30;54931;52.098;21.006;2022-08-19T05:30:17;23.98;69.02
68128;SHT30;54931;52.098;21.006;2022-08-19T05:32:45;24.08;68.92
68128;SHT30;54931;52.098;21.006;2022-08-19T05:35:13;24.21;68.62
68128;SHT30;54931;52.098;21.006;2022-08-19T05:37:41;24.42;67.93
68128;SHT30;54931;52.098;21.006;2022-08-19T05:40:09;24.59;67.67
68128;SHT30;54931;52.098;21.006;2022-08-19T05:42:37;24.70;67.33
68128;SHT30;54931;52.098;21.006;2022-08-19T05:45:07;24.74;66.82
68128;SHT30;54931;52.098;21.006;2022-08-19T05:47:35;24.69;66.62
68128;SHT30;54931;52.098;21.006;2022-08-19T05:50:04;24.60;66.96
68128;SHT30;54931;52.098;21.006;2022-08-19T05:52:31;24.53;67.07
68128;SHT30;54931;52.098;21.006;2022-08-19T05:54:59;24.48;67.48
68128;SHT30;54931;52.098;21.006;2022-08-19T05:57:27;24.49;67.57
68128;SHT30;54931;52.098;21.006;2022-08-19T05:59:55;24.49;67.59
68128;SHT30;54931;52.098;21.006;2022-08-19T06:02:27;24.52;67.60
68128;SHT30;54931;52.098;21.006;2022-08-19T06:04:57;24.62;67.62
68128;SHT30;54931;52.098;21.006;2022-08-19T06:07:25;24.68;67.36
68128;SHT30;54931;52.098;21.006;2022-08-19T06:09:52;24.75;67.45
68128;SHT30;54931;52.098;21.006;2022-08-19T06:12:20;24.78;67.36
68128;SHT30;54931;52.098;21.006;2022-08-19T06:15:00;24.81;67.37
68128;SHT30;54931;52.098;21.006;2022-08-19T06:17:32;24.80;67.14
68128;SHT30;54931;52.098;21.006;2022-08-19T06:20:05;24.79;67.22
68128;SHT30;54931;52.098;21.006;2022-08-19T06:22:41;24.83;67.24
68128;SHT30;54931;52.098;21.006;2022-08-19T06:25:13;24.87;67.23
68128;SHT30;54931;52.098;21.006;2022-08-19T06:27:43;24.85;67.25
68128;SHT30;54931;52.098;21.006;2022-08-19T06:30:12;24.87;67.26
68128;SHT30;54931;52.098;21.006;2022-08-19T06:32:40;24.89;67.32
68128;SHT30;54931;52.098;21.006;2022-08-19T06:35:08;25.02;67.36
68128;SHT30;54931;52.098;21.006;2022-08-19T06:37:37;25.11;66.89
68128;SHT30;54931;52.098;21.006;2022-08-19T06:40:05;25.19;66.70
68128;SHT30;54931;52.098;21.006;2022-08-19T06:42:38;25.25;66.50
68128;SHT30;54931;52.098;21.006;2022-08-19T06:45:06;25.30;66.61
68128;SHT30;54931;52.098;21.006;2022-08-19T06:47:34;25.37;66.50
68128;SHT30;54931;52.098;21.006;2022-08-19T06:50:03;25.43;66.38
68128;SHT30;54931;52.098;21.006;2022-08-19T06:52:34;25.54;66.09
68128;SHT30;54931;52.098;21.006;2022-08-19T06:55:02;25.72;65.88
68128;SHT30;54931;52.098;21.006;2022-08-19T06:57:31;26.01;64.66
68128;SHT30;54931;52.098;21.006;2022-08-19T07:00:02;26.26;63.82
68128;SHT30;54931;52.098;21.006;2022-08-19T07:02:37;26.35;63.55
68128;SHT30;54931;52.098;21.006;2022-08-19T07:05:05;26.57;63.81
68128;SHT30;54931;52.098;21.006;2022-08-19T07:07:34;26.79;62.98
68128;SHT30;54931;52.098;21.006;2022-08-19T07:10:02;27.26;62.88
68128;SHT30;54931;52.098;21.006;2022-08-19T07:12:31;27.80;61.35
68128;SHT30;54931;52.098;21.006;2022-08-19T07:15:01;28.31;59.92
68128;SHT30;54931;52.098;21.006;2022-08-19T07:17:31;28.67;58.45
68128;SHT30;54931;52.098;21.006;2022-08-19T07:19:59;28.93;57.83
68128;SHT30;54931;52.098;21.006;2022-08-19T07:22:28;29.22;56.98
68128;SHT30;54931;52.098;21.006;2022-08-19T07:24:56;29.26;55.68
68128;SHT30;54931;52.098;21.006;2022-08-19T07:27:23;29.34;56.14
68128;SHT30;54931;52.098;21.006;2022-08-19T07:29:51;29.62;56.03
68128;SHT30;54931;52.098;21.006;2022-08-19T07:32:20;29.97;55.71
68128;SHT30;54931;52.098;21.006;2022-08-19T07:34:48;30.03;54.21
68128;SHT30;54931;52.098;21.006;2022-08-19T07:37:15;30.09;54.72
68128;SHT30;54931;52.098;21.006;2022-08-19T07:39:43;30.26;54.17
68128;SHT30;54931;52.098;21.006;2022-08-19T07:42:11;30.31;54.00
68128;SHT30;54931;52.098;21.006;2022-08-19T07:44:40;30.39;54.16
68128;SHT30;54931;52.098;21.006;2022-08-19T07:47:08;30.61;53.96
68128;SHT30;54931;52.098;21.006;2022-08-19T07:49:36;30.55;53.29
68128;SHT30;54931;52.098;21.006;2022-08-19T07:52:05;30.48;53.31
68128;SHT30;54931;52.098;21.006;2022-08-19T07:54:37;30.59;54.04
68128;SHT30;54931;52.098;21.006;2022-08-19T07:57:07;30.71;53.99
68128;SHT30;54931;52.098;21.006;2022-08-19T07:59:35;30.86;53.68
68128;SHT30;54931;52.098;21.006;2022-08-19T08:02:04;30.90;53.35
68128;SHT30;54931;52.098;21.006;2022-08-19T08:04:32;31.01;53.48
68128;SHT30;54931;52.098;21.006;2022-08-19T08:07:18;31.08;53.03
68128;SHT30;54931;52.098;21.006;2022-08-19T08:10:05;31.18;53.51
68128;SHT30;54931;52.098;21.006;2022-08-19T08:12:36;31.44;53.30
68128;SHT30;54931;52.098;21.006;2022-08-19T08:15:11;31.52;52.09
68128;SHT30;54931;52.098;21.006;2022-08-19T08:17:45;31.53;51.80
68128;SHT30;54931;52.098;21.006;2022-08-19T08:20:14;31.61;52.05
68128;SHT30;54931;52.098;21.006;2022-08-19T08:22:43;31.74;52.34
68128;SHT30;54931;52.098;21.006;2022-08-19T08:25:31;31.93;51.70
68128;SHT30;54931;52.098;21.006;2022-08-19T08:28:00;32.09;51.06
68128;SHT30;54931;52.098;21.006;2022-08-19T08:30:29;32.19;50.26
68128;SHT30;54931;52.098;21.006;2022-08-19T08:33:00;32.12;50.23
68128;SHT30;54931;52.098;21.006;2022-08-19T08:35:28;32.05;50.38
68128;SHT30;54931;52.098;21.006;2022-08-19T08:37:56;32.15;50.59
68128;SHT30;54931;52.098;21.006;2022-08-19T08:40:28;32.14;49.94
68128;SHT30;54931;52.098;21.006;2022-08-19T08:43:14;32.06;49.13
68128;SHT30;54931;52.098;21.006;2022-08-19T08:46:19;32.04;47.50
68128;SHT30;54931;52.098;21.006;2022-08-19T08:55:13;32.48;46.76
68128;SHT30;54931;52.098;21.006;2022-08-19T09:00:23;32.44;47.05
68128;SHT30;54931;52.098;21.006;2022-08-19T09:02:59;32.47;46.67
68128;SHT30;54931;52.098;21.006;2022-08-19T09:05:39;32.42;46.59
68128;SHT30;54931;52.098;21.006;2022-08-19T09:14:39;32.16;47.01
68128;SHT30;54931;52.098;21.006;2022-08-19T09:17:22;32.30;47.40
68128;SHT30;54931;52.098;21.006;2022-08-19T09:20:14;32.47;46.83
68128;SHT30;54931;52.098;21.006;2022-08-19T09:22:47;32.70;46.30
68128;SHT30;54931;52.098;21.006;2022-08-19T09:25:17;32.89;46.00
68128;SHT30;54931;52.098;21.006;2022-08-19T09:27:51;32.95;45.71
68128;SHT30;54931;52.098;21.006;2022-08-19T09:30:24;33.03;45.42
68128;SHT30;54931;52.098;21.006;2022-08-19T09:32:55;33.10;44.56
68128;SHT30;54931;52.098;21.006;2022-08-19T09:35:23;33.14;44.64
68128;SHT30;54931;52.098;21.006;2022-08-19T09:37:55;33.21;44.25
68128;SHT30;54931;52.098;21.006;2022-08-19T09:40:28;33.42;44.16
68128;SHT30;54931;52.098;21.006;2022-08-19T09:42:57;33.63;44.68
68128;SHT30;54931;52.098;21.006;2022-08-19T09:45:29;33.79;43.63
68128;SHT30;54931;52.098;21.006;2022-08-19T09:47:56;33.82;43.00
68128;SHT30;54931;52.098;21.006;2022-08-19T09:50:24;33.80;42.95
68128;SHT30;54931;52.098;21.006;2022-08-19T09:52:52;33.84;43.14
68128;SHT30;54931;52.098;21.006;2022-08-19T09:55:20;34.00;43.79
68128;SHT30;54931;52.098;21.006;2022-08-19T09:57:48;34.12;42.67
68128;SHT30;54931;52.098;21.006;2022-08-19T10:00:16;34.08;42.66
68128;SHT30;54931;52.098;21.006;2022-08-19T10:02:44;34.09;42.42
68128;SHT30;54931;52.098;21.006;2022-08-19T10:05:11;33.99;42.12
68128;SHT30;54931;52.098;21.006;2022-08-19T10:07:57;33.86;42.04
68128;SHT30;54931;52.098;21.006;2022-08-19T10:10:27;33.87;43.14
68128;SHT30;54931;52.098;21.006;2022-08-19T10:12:55;33.93;41.91
68128;SHT30;54931;52.098;21.006;2022-08-19T10:15:23;33.85;41.64
68128;SHT30;54931;52.098;21.006;2022-08-19T10:17:50;33.88;41.58
68128;SHT30;54931;52.098;21.006;2022-08-19T10:20:18;33.86;41.20
68128;SHT30;54931;52.098;21.006;2022-08-19T10:22:46;33.92;41.42
68128;SHT30;54931;52.098;21.006;2022-08-19T10:25:13;34.02;41.36
68128;SHT30;54931;52.098;21.006;2022-08-19T10:27:43;33.95;39.90
68128;SHT30;54931;52.098;21.006;2022-08-19T10:30:11;33.89;40.60
68128;SHT30;54931;52.098;21.006;2022-08-19T10:32:39;34.05;41.99
68128;SHT30;54931;52.098;21.006;2022-08-19T10:35:07;34.24;41.44
68128;SHT30;54931;52.098;21.006;2022-08-19T10:37:36;34.17;40.84
68128;SHT30;54931;52.098;21.006;2022-08-19T10:40:06;34.17;40.58
68128;SHT30;54931;52.098;21.006;2022-08-19T10:42:37;34.21;41.19
68128;SHT30;54931;52.098;21.006;2022-08-19T10:45:05;34.26;41.33
68128;SHT30;54931;52.098;21.006;2022-08-19T10:47:33;34.07;41.36
68128;SHT30;54931;52.098;21.006;2022-08-19T10:50:01;33.98;41.63
68128;SHT30;54931;52.098;21.006;2022-08-19T10:52:49;33.86;41.89
68128;SHT30;54931;52.098;21.006;2022-08-19T10:55:19;33.83;41.81
68128;SHT30;54931;52.098;21.006;2022-08-19T10:58:16;33.63;42.02
68128;SHT30;54931;52.098;21.006;2022-08-19T11:00:52;33.58;42.36
68128;SHT30;54931;52.098;21.006;2022-08-19T11:03:22;33.55;42.64
68128;SHT30;54931;52.098;21.006;2022-08-19T11:06:02;33.60;43.53
68128;SHT30;54931;52.098;21.006;2022-08-19T11:08:33;33.63;42.61
68128;SHT30;54931;52.098;21.006;2022-08-19T11:11:04;33.61;42.44
68128;SHT30;54931;52.098;21.006;2022-08-19T11:13:35;33.65;43.51
68128;SHT30;54931;52.098;21.006;2022-08-19T11:16:07;33.62;42.27
68128;SHT30;54931;52.098;21.006;2022-08-19T11:18:42;33.50;42.27
68128;SHT30;54931;52.098;21.006;2022-08-19T11:21:23;33.47;43.46
68128;SHT30;54931;52.098;21.006;2022-08-19T11:24:02;33.47;42.81
68128;SHT30;54931;52.098;21.006;2022-08-19T11:26:34;33.37;42.72
68128;SHT30;54931;52.098;21.006;2022-08-19T11:29:05;33.34;42.59
68128;SHT30;54931;52.098;21.006;2022-08-19T11:31:38;33.39;43.40
68128;SHT30;54931;52.098;21.006;2022-08-19T11:34:11;33.40;43.16
68128;SHT30;54931;52.098;21.006;2022-08-19T11:36:45;33.43;42.87
68128;SHT30;54931;52.098;21.006;2022-08-19T11:39:15;33.41;43.49
68128;SHT30;54931;52.098;21.006;2022-08-19T11:41:47;33.53;44.29
68128;SHT30;54931;52.098;21.006;2022-08-19T11:44:14;33.65;43.87
68128;SHT30;54931;52.098;21.006;2022-08-19T11:46:43;33.62;43.53
68128;SHT30;54931;52.098;21.006;2022-08-19T11:49:14;33.63;43.98
68128;SHT30;54931;52.098;21.006;2022-08-19T11:51:45;33.63;42.87
68128;SHT30;54931;52.098;21.006;2022-08-19T11:54:15;33.47;42.44
68128;SHT30;54931;52.098;21.006;2022-08-19T11:56:44;33.47;43.38
68128;SHT30;54931;52.098;21.006;2022-08-19T11:59:12;33.47;42.54
68128;SHT30;54931;52.098;21.006;2022-08-19T12:01:40;33.40;42.61
68128;SHT30;54931;52.098;21.006;2022-08-19T12:04:09;33.34;42.85
68128;SHT30;54931;52.098;21.006;2022-08-19T12:06:38;33.23;42.66
68128;SHT30;54931;52.098;21.006;2022-08-19T12:09:08;33.18;43.14
68128;SHT30;54931;52.098;21.006;2022-08-19T12:11:38;33.23;42.92
68128;SHT30;54931;52.098;21.006;2022-08-19T12:14:09;33.28;42.50
68128;SHT30;54931;52.098;21.006;2022-08-19T12:16:39;33.28;42.15
68128;SHT30;54931;52.098;21.006;2022-08-19T12:19:08;33.21;41.95
68128;SHT30;54931;52.098;21.006;2022-08-19T12:21:35;33.26;42.62
68128;SHT30;54931;52.098;21.006;2022-08-19T12:24:04;33.23;42.56
68128;SHT30;54931;52.098;21.006;2022-08-19T12:26:32;33.24;43.02
68128;SHT30;54931;52.098;21.006;2022-08-19T12:29:01;33.28;43.12
68128;SHT30;54931;52.098;21.006;2022-08-19T12:31:30;33.37;43.00
68128;SHT30;54931;52.098;21.006;2022-08-19T12:33:58;33.42;42.24
68128;SHT30;54931;52.098;21.006;2022-08-19T12:36:27;33.40;42.09
68128;SHT30;54931;52.098;21.006;2022-08-19T12:38:55;33.43;41.98
68128;SHT30;54931;52.098;21.006;2022-08-19T12:41:26;33.41;42.05
68128;SHT30;54931;52.098;21.006;2022-08-19T12:43:54;33.34;41.85
68128;SHT30;54931;52.098;21.006;2022-08-19T12:46:22;33.26;42.08
68128;SHT30;54931;52.098;21.006;2022-08-19T12:48:49;33.19;41.99
68128;SHT30;54931;52.098;21.006;2022-08-19T12:51:18;33.14;42.25
68128;SHT30;54931;52.098;21.006;2022-08-19T12:53:47;33.20;42.89
68128;SHT30;54931;52.098;21.006;2022-08-19T12:56:16;33.28;42.59
68128;SHT30;54931;52.098;21.006;2022-08-19T12:58:45;33.31;42.26
68128;SHT30;54931;52.098;21.006;2022-08-19T13:01:13;33.34;42.44
68128;SHT30;54931;52.098;21.006;2022-08-19T13:03:46;33.33;41.85
68128;SHT30;54931;52.098;21.006;2022-08-19T13:06:14;33.29;41.73
68128;SHT30;54931;52.098;21.006;2022-08-19T13:08:43;33.32;42.24
68128;SHT30;54931;52.098;21.006;2022-08-19T13:11:12;33.37;41.98
68128;SHT30;54931;52.098;21.006;2022-08-19T13:13:45;33.41;41.65
68128;SHT30;54931;52.098;21.006;2022-08-19T13:16:17;33.41;42.06
68128;SHT30;54931;52.098;21.006;2022-08-19T13:18:47;33.45;41.60
68128;SHT30;54931;52.098;21.006;2022-08-19T13:21:17;33.48;41.79
68128;SHT30;54931;52.098;21.006;2022-08-19T13:23:46;33.56;41.77
68128;SHT30;54931;52.098;21.006;2022-08-19T13:26:15;33.69;42.34
68128;SHT30;54931;52.098;21.006;2022-08-19T13:28:45;33.78;41.00
68128;SHT30;54931;52.098;21.006;2022-08-19T13:31:32;33.73;40.21
68128;SHT30;54931;52.098;21.006;2022-08-19T13:34:31;33.71;40.61
68128;SHT30;54931;52.098;21.006;2022-08-19T13:37:02;33.67;40.22
68128;SHT30;54931;52.098;21.006;2022-08-19T13:39:32;33.68;40.46
68128;SHT30;54931;52.098;21.006;2022-08-19T13:42:01;33.72;40.67
68128;SHT30;54931;52.098;21.006;2022-08-19T13:44:31;33.74;40.57
68128;SHT30;54931;52.098;21.006;2022-08-19T13:47:03;33.79;40.61
68128;SHT30;54931;52.098;21.006;2022-08-19T13:49:34;33.67;39.91
68128;SHT30;54931;52.098;21.006;2022-08-19T13:52:03;33.62;40.20
68128;SHT30;54931;52.098;21.006;2022-08-19T13:54:32;33.66;40.45
68128;SHT30;54931;52.098;21.006;2022-08-19T13:57:00;33.68;40.14
68128;SHT30;54931;52.098;21.006;2022-08-19T13:59:27;33.69;40.06
68128;SHT30;54931;52.098;21.006;2022-08-19T14:01:59;33.76;40.24
68128;SHT30;54931;52.098;21.006;2022-08-19T14:04:27;33.82;40.69
68128;SHT30;54931;52.098;21.006;2022-08-19T14:06:55;33.85;40.15
68128;SHT30;54931;52.098;21.006;2022-08-19T14:09:23;33.81;40.03
68128;SHT30;54931;52.098;21.006;2022-08-19T14:11:51;33.78;40.16
68128;SHT30;54931;52.098;21.006;2022-08-19T14:14:18;33.78;40.38
68128;SHT30;54931;52.098;21.006;2022-08-19T14:16:46;33.82;40.47
68128;SHT30;54931;52.098;21.006;2022-08-19T14:19:14;33.81;39.35
68128;SHT30;54931;52.098;21.006;2022-08-19T14:21:41;33.89;39.60
68128;SHT30;54931;52.098;21.006;2022-08-19T14:24:09;33.94;40.04
68128;SHT30;54931;52.098;21.006;2022-08-19T14:26:37;34.00;40.09
68128;SHT30;54931;52.098;21.006;2022-08-19T14:29:05;33.95;38.75
68128;SHT30;54931;52.098;21.006;2022-08-19T14:31:32;33.87;38.27
68128;SHT30;54931;52.098;21.006;2022-08-19T14:34:00;33.86;39.23
68128;SHT30;54931;52.098;21.006;2022-08-19T14:36:27;33.82;38.56
68128;SHT30;54931;52.098;21.006;2022-08-19T14:38:55;33.76;38.06
68128;SHT30;54931;52.098;21.006;2022-08-19T14:41:24;33.75;38.13
68128;SHT30;54931;52.098;21.006;2022-08-19T14:43:53;33.74;38.07
68128;SHT30;54931;52.098;21.006;2022-08-19T14:46:22;33.69;37.83
68128;SHT30;54931;52.098;21.006;2022-08-19T14:48:53;33.66;38.17
68128;SHT30;54931;52.098;21.006;2022-08-19T14:51:23;33.66;38.32
68128;SHT30;54931;52.098;21.006;2022-08-19T14:53:53;33.69;38.76
68128;SHT30;54931;52.098;21.006;2022-08-19T14:56:23;33.72;38.64
68128;SHT30;54931;52.098;21.006;2022-08-19T14:58:54;33.83;38.35
68128;SHT30;54931;52.098;21.006;2022-08-19T15:01:25;33.97;38.40
68128;SHT30;54931;52.098;21.006;2022-08-19T15:03:55;34.00;37.74
68128;SHT30;54931;52.098;21.006;2022-08-19T15:06:23;33.96;37.51
68128;SHT30;54931;52.098;21.006;2022-08-19T15:08:52;33.81;37.46
68128;SHT30;54931;52.098;21.006;2022-08-19T15:11:22;33.71;37.74
68128;SHT30;54931;52.098;21.006;2022-08-19T15:13:54;33.64;38.27
68128;SHT30;54931;52.098;21.006;2022-08-19T15:16:23;33.59;38.51
68128;SHT30;54931;52.098;21.006;2022-08-19T15:18:54;33.57;38.53
68128;SHT30;54931;52.098;21.006;2022-08-19T15:21:24;33.58;38.52
68128;SHT30;54931;52.098;21.006;2022-08-19T15:23:53;33.67;38.63
68128;SHT30;54931;52.098;21.006;2022-08-19T15:26:23;33.73;38.57
68128;SHT30;54931;52.098;21.006;2022-08-19T15:28:59;33.71;38.33
68128;SHT30;54931;52.098;21.006;2022-08-19T15:31:28;33.71;38.33
68128;SHT30;54931;52.098;21.006;2022-08-19T15:34:02;33.77;38.60
68128;SHT30;54931;52.098;21.006;2022-08-19T15:36:32;33.81;38.55
68128;SHT30;54931;52.098;21.006;2022-08-19T15:39:02;33.71;38.04
68128;SHT30;54931;52.098;21.006;2022-08-19T15:41:32;33.69;38.53
68128;SHT30;54931;52.098;21.006;2022-08-19T15:44:01;33.69;38.77
68128;SHT30;54931;52.098;21.006;2022-08-19T15:46:40;33.64;38.95
68128;SHT30;54931;52.098;21.006;2022-08-19T15:49:11;33.62;39.34
68128;SHT30;54931;52.098;21.006;2022-08-19T15:51:43;33.61;39.16
68128;SHT30;54931;52.098;21.006;2022-08-19T15:54:16;33.50;39.55
68128;SHT30;54931;52.098;21.006;2022-08-19T15:56:51;33.39;39.48
68128;SHT30;54931;52.098;21.006;2022-08-19T15:59:37;33.26;39.56
68128;SHT30;54931;52.098;21.006;2022-08-19T16:02:25;33.05;39.74